Terminal Aerodrome Forecast
Issued by NWS Louisville, KY

Home | Current Version | Previous Version | Text Only | Print | Product List | Glossary On
Versions: 1 2 3 4 5 6 7 8 9 10 11 12 13 14 15 16 17 18
798
FTUS43 KLMK 271724
TAFLEX
TAF
KLEX 271724Z 2718/2818 18008KT 6SM -SHRA BKN035
     FM272100 15010KT 4SM -TSRA BR BKN035CB
     FM280000 19012KT P6SM BKN035
     FM280200 20009KT 3SM -TSRA BKN035CB
     FM280600 20008KT P6SM VCSH BKN015=

USA.gov is the U.S. government's official web portal to all federal, state and local government web resources and services.